createdAt,value
2023-05-01T00:00:06.346Z,3.82
2023-05-01T00:01:06.416Z,3.77
2023-05-01T00:02:06.468Z,3.99
2023-05-01T00:03:06.673Z,4.00
2023-05-01T00:04:06.690Z,3.98
2023-05-01T00:05:06.677Z,3.86
2023-05-01T00:06:06.745Z,3.81
2023-05-01T00:07:06.786Z,3.84
2023-05-01T00:08:06.813Z,3.72
2023-05-01T00:09:06.862Z,3.85
2023-05-01T00:10:06.942Z,3.77
2023-05-01T00:11:06.985Z,3.64
2023-05-01T00:12:07.045Z,3.59
2023-05-01T00:13:07.104Z,3.50
2023-05-01T00:14:07.148Z,3.51
2023-05-01T00:15:07.287Z,3.59
2023-05-01T00:16:07.287Z,3.70
2023-05-01T00:17:07.336Z,3.84
2023-05-01T00:18:07.435Z,3.62
2023-05-01T00:19:07.422Z,3.55
2023-05-01T00:20:07.498Z,3.61
2023-05-01T00:21:07.535Z,3.63
2023-05-01T00:22:07.596Z,3.54
2023-05-01T00:23:07.649Z,3.46
2023-05-01T00:24:07.728Z,3.45
2023-05-01T00:25:07.776Z,3.51
2023-05-01T00:26:07.866Z,3.70
2023-05-01T00:27:07.879Z,3.71
2023-05-01T00:28:07.952Z,3.70
2023-05-01T00:29:08.005Z,3.71
2023-05-01T00:30:08.069Z,3.61
2023-05-01T00:31:08.139Z,3.39
2023-05-01T00:32:08.210Z,3.59
2023-05-01T00:33:08.303Z,3.56
2023-05-01T00:34:08.286Z,3.73
2023-05-01T00:35:08.346Z,3.76
2023-05-01T00:36:08.395Z,3.77
2023-05-01T00:37:08.457Z,3.59
2023-05-01T00:38:08.511Z,3.51
2023-05-01T00:39:08.634Z,3.45
2023-05-01T00:40:08.651Z,3.54
2023-05-01T00:41:08.691Z,3.68
2023-05-01T00:42:08.749Z,3.78
2023-05-01T00:43:08.814Z,3.69
2023-05-01T00:44:08.859Z,3.47
2023-05-01T00:45:08.927Z,3.54
2023-05-01T00:46:09.080Z,3.67
2023-05-01T00:47:09.096Z,3.77
2023-05-01T00:48:09.149Z,3.65
2023-05-01T00:49:09.182Z,3.60
2023-05-01T00:50:09.236Z,3.53
2023-05-01T00:51:09.290Z,3.69
2023-05-01T00:52:09.348Z,3.92
2023-05-01T00:53:09.451Z,3.87
2023-05-01T00:54:09.474Z,3.75
2023-05-01T00:55:09.539Z,3.71
2023-05-01T00:56:09.607Z,3.78
2023-05-01T00:57:09.645Z,3.76
2023-05-01T00:58:09.690Z,3.87
2023-05-01T00:59:09.751Z,3.69
2023-05-01T01:00:09.835Z,3.61
2023-05-01T01:01:09.991Z,3.65
2023-05-01T01:02:09.958Z,3.64
2023-05-01T01:03:10.058Z,3.72
2023-05-01T01:04:10.076Z,3.68
2023-05-01T01:05:10.138Z,3.80
2023-05-01T01:06:10.310Z,3.66
2023-05-01T01:07:10.234Z,3.70
2023-05-01T01:08:10.289Z,3.70
2023-05-01T01:09:10.327Z,3.77
2023-05-01T01:10:10.475Z,3.63
2023-05-01T01:11:10.447Z,3.80
2023-05-01T01:12:10.528Z,3.67
2023-05-01T01:13:10.575Z,3.76
2023-05-01T01:14:10.627Z,4.00
2023-05-01T01:15:10.685Z,3.84
2023-05-01T01:16:10.735Z,3.71
2023-05-01T01:17:10.861Z,3.90
2023-05-01T01:18:10.892Z,3.79
2023-05-01T01:19:10.908Z,3.77
2023-05-01T01:20:11.039Z,3.89
2023-05-01T01:21:11.049Z,3.82
2023-05-01T01:22:11.119Z,3.94
2023-05-01T01:23:11.169Z,3.77
2023-05-01T01:24:11.223Z,3.69
2023-05-01T01:25:11.329Z,3.78
2023-05-01T01:26:11.330Z,3.62
2023-05-01T01:27:11.403Z,3.69
2023-05-01T01:28:11.461Z,3.61
2023-05-01T01:29:11.509Z,3.69
2023-05-01T01:30:11.566Z,3.60
2023-05-01T01:31:11.670Z,3.75
2023-05-01T01:32:11.685Z,3.61
2023-05-01T01:33:11.739Z,3.64
2023-05-01T01:34:11.797Z,3.65
2023-05-01T01:35:37.219Z,0.50
2023-05-01T01:36:37.214Z,0.50
2023-05-01T01:37:37.191Z,0.50
2023-05-01T01:38:37.198Z,0.50
2023-05-01T01:39:37.181Z,0.50
2023-05-01T01:40:37.197Z,0.52
2023-05-01T01:41:37.186Z,0.53
2023-05-01T01:42:37.179Z,0.52
2023-05-01T01:43:37.157Z,0.50
2023-05-01T01:44:37.162Z,0.51
2023-05-01T01:45:37.149Z,0.52
2023-05-01T01:46:37.223Z,0.51
2023-05-01T01:47:37.194Z,0.52
2023-05-01T01:48:37.133Z,0.51
2023-05-01T01:49:37.130Z,0.53
2023-05-01T01:50:37.114Z,0.53
2023-05-01T01:51:37.119Z,0.51
2023-05-01T01:52:37.107Z,0.51
2023-05-01T01:53:37.073Z,0.52
2023-05-01T01:54:37.084Z,0.52
2023-05-01T01:55:37.078Z,0.51
2023-05-01T01:56:37.058Z,0.54
2023-05-01T01:57:37.056Z,0.52
2023-05-01T01:58:37.059Z,0.53
2023-05-01T01:59:37.055Z,0.53
2023-05-01T02:00:37.039Z,0.55
2023-05-01T02:01:37.063Z,0.53
2023-05-01T02:02:37.102Z,0.51
2023-05-01T02:03:37.100Z,0.51
2023-05-01T02:04:37.000Z,0.53
2023-05-01T02:05:37.000Z,0.53
2023-05-01T02:06:37.027Z,0.54
2023-05-01T02:07:37.115Z,0.52
2023-05-01T02:08:36.968Z,0.52
2023-05-01T02:09:36.979Z,0.51
2023-05-01T02:10:36.979Z,0.53
2023-05-01T02:11:36.967Z,0.54
2023-05-01T02:12:36.941Z,0.54
2023-05-01T02:13:36.948Z,0.53
2023-05-01T02:14:36.941Z,0.52
2023-05-01T02:15:36.958Z,0.54
2023-05-01T02:16:37.041Z,0.55
2023-05-01T02:17:37.083Z,0.54
2023-05-01T02:18:37.027Z,0.52
2023-05-01T02:19:37.083Z,0.52
2023-05-01T02:20:37.167Z,0.53
2023-05-01T02:21:37.179Z,0.54
2023-05-01T02:22:37.223Z,0.56
2023-05-01T02:23:37.256Z,0.55
2023-05-01T02:24:37.297Z,0.56
2023-05-01T02:25:37.404Z,0.58
2023-05-01T02:26:37.411Z,0.56
2023-05-01T02:27:37.423Z,0.59
2023-05-01T02:28:37.469Z,0.57
2023-05-01T02:29:37.520Z,0.58
2023-05-01T02:30:37.566Z,0.56
2023-05-01T02:31:37.704Z,0.56
2023-05-01T02:32:37.730Z,0.56
2023-05-01T02:33:37.712Z,0.57
2023-05-01T02:34:37.757Z,0.57
2023-05-01T02:35:37.801Z,0.58
2023-05-01T02:36:37.857Z,0.61
2023-05-01T02:37:37.880Z,0.60
2023-05-01T02:38:37.922Z,0.60
2023-05-01T02:39:37.978Z,0.60
2023-05-01T02:40:38.005Z,0.61
2023-05-01T02:41:38.085Z,0.61
2023-05-01T02:42:38.097Z,0.62
2023-05-01T02:43:38.145Z,0.62
2023-05-01T02:44:38.199Z,0.62
2023-05-01T02:45:38.303Z,0.63
2023-05-01T02:46:38.384Z,0.61
2023-05-01T02:47:38.380Z,0.62
2023-05-01T02:48:38.379Z,0.62
2023-05-01T02:49:38.407Z,0.63
2023-05-01T02:50:38.453Z,0.62
2023-05-01T02:51:38.489Z,0.63
2023-05-01T02:52:38.561Z,0.64
2023-05-01T02:53:38.570Z,0.63
2023-05-01T02:54:38.626Z,0.65
2023-05-01T02:55:38.652Z,0.67
2023-05-01T02:56:38.706Z,0.66
2023-05-01T02:57:38.761Z,0.64
2023-05-01T02:58:38.783Z,0.64
2023-05-01T02:59:38.827Z,0.65
2023-05-01T03:00:38.891Z,0.64
2023-05-01T03:01:38.977Z,0.65
2023-05-01T03:02:39.008Z,0.64
2023-05-01T03:03:39.016Z,0.65
2023-05-01T03:04:39.101Z,0.66
2023-05-01T03:05:39.084Z,0.64
2023-05-01T03:06:39.194Z,0.65
2023-05-01T03:07:39.175Z,0.65
2023-05-01T03:08:39.237Z,0.67
2023-05-01T03:09:39.264Z,0.65
2023-05-01T03:10:39.308Z,0.65
2023-05-01T03:11:39.344Z,0.66
2023-05-01T03:12:39.397Z,0.65
2023-05-01T03:13:39.446Z,0.61
2023-05-01T03:14:39.489Z,0.64
2023-05-01T03:15:39.550Z,0.65
2023-05-01T03:16:39.581Z,0.64
2023-05-01T03:17:39.663Z,0.66
2023-05-01T03:18:39.684Z,0.64
2023-05-01T03:19:39.700Z,0.64
2023-05-01T03:20:39.744Z,0.66
2023-05-01T03:21:39.804Z,0.65
2023-05-01T03:22:39.855Z,0.64
2023-05-01T03:23:39.902Z,0.63
2023-05-01T03:24:39.904Z,0.65
2023-05-01T03:25:39.958Z,0.63
2023-05-01T03:26:40.021Z,0.65
2023-05-01T03:27:40.056Z,0.65
2023-05-01T03:28:40.092Z,0.64
2023-05-01T03:29:40.127Z,0.63
2023-05-01T03:30:40.181Z,0.64
2023-05-01T03:31:40.285Z,0.65
2023-05-01T03:32:40.279Z,0.65
2023-05-01T03:33:40.310Z,0.65
2023-05-01T03:34:40.352Z,0.66
2023-05-01T03:35:40.441Z,0.64
2023-05-01T03:36:40.448Z,0.64
2023-05-01T03:37:40.497Z,0.65
2023-05-01T03:38:40.526Z,0.65
2023-05-01T03:39:40.566Z,0.65
2023-05-01T03:40:40.594Z,0.65
2023-05-01T03:41:40.666Z,0.65
2023-05-01T03:42:40.686Z,0.64
2023-05-01T03:43:40.751Z,0.62
2023-05-01T03:44:40.801Z,0.63
2023-05-01T03:45:42.258Z,0.63
2023-05-01T03:46:40.926Z,0.65
2023-05-01T03:47:40.850Z,0.68
2023-05-01T03:48:40.795Z,0.64
2023-05-01T03:49:40.803Z,0.64
2023-05-01T03:50:40.780Z,0.63
2023-05-01T03:51:40.811Z,0.63
2023-05-01T03:52:40.811Z,0.64
2023-05-01T03:53:40.770Z,0.65
2023-05-01T03:54:40.773Z,0.64
2023-05-01T03:55:40.743Z,0.66
2023-05-01T03:56:40.756Z,0.64
2023-05-01T03:57:40.730Z,0.64
2023-05-01T03:58:40.740Z,0.65
2023-05-01T03:59:40.715Z,0.64
2023-05-01T04:00:40.719Z,0.64
2023-05-01T04:01:40.743Z,0.62
2023-05-01T04:02:40.795Z,0.64
2023-05-01T04:03:40.746Z,0.65
2023-05-01T04:04:40.942Z,0.65
2023-05-01T04:05:40.673Z,0.65
2023-05-01T04:06:40.849Z,0.66
2023-05-01T04:07:40.658Z,0.65
2023-05-01T04:08:40.653Z,0.66
2023-05-01T04:09:40.676Z,0.66
2023-05-01T04:10:40.666Z,0.65
2023-05-01T04:11:40.660Z,0.66
2023-05-01T04:12:40.628Z,0.65
2023-05-01T04:13:40.641Z,0.66
2023-05-01T04:14:40.627Z,0.66
2023-05-01T04:15:40.678Z,0.66
2023-05-01T04:16:40.682Z,0.67
2023-05-01T04:17:40.615Z,0.64
2023-05-01T04:18:40.602Z,0.66
2023-05-01T04:19:40.586Z,0.68
2023-05-01T04:20:40.601Z,0.69
2023-05-01T04:21:40.566Z,0.68
2023-05-01T04:22:40.581Z,0.68
2023-05-01T04:23:40.565Z,0.68
2023-05-01T04:24:40.589Z,0.67
2023-05-01T04:25:40.634Z,0.69
2023-05-01T04:26:40.689Z,0.73
2023-05-01T04:27:40.731Z,0.70
2023-05-01T04:28:40.758Z,0.69
2023-05-01T04:29:40.811Z,0.69
2023-05-01T04:30:40.880Z,0.68
2023-05-01T04:31:41.015Z,0.71
2023-05-01T04:32:40.966Z,0.69
2023-05-01T04:33:41.011Z,0.68
2023-05-01T04:34:41.040Z,0.68
2023-05-01T04:35:41.106Z,0.69
2023-05-01T04:36:41.177Z,0.71
2023-05-01T04:37:41.205Z,0.71
2023-05-01T04:38:41.260Z,0.68
2023-05-01T04:39:41.277Z,0.69
2023-05-01T04:40:41.360Z,0.70
2023-05-01T04:41:41.408Z,0.70
2023-05-01T04:42:41.418Z,0.70
2023-05-01T04:43:41.470Z,0.69
2023-05-01T04:44:41.527Z,0.70
2023-05-01T04:45:41.566Z,0.71
2023-05-01T04:46:41.653Z,0.69
2023-05-01T04:47:41.686Z,0.69
2023-05-01T04:48:41.703Z,0.69
2023-05-01T04:49:41.757Z,0.71
2023-05-01T04:50:41.807Z,0.70
2023-05-01T04:51:41.882Z,0.69
2023-05-01T04:52:42.013Z,0.71
2023-05-01T04:53:41.962Z,0.69
2023-05-01T04:54:41.989Z,0.71
2023-05-01T04:55:42.046Z,0.72
2023-05-01T04:56:42.135Z,0.72
2023-05-01T04:57:42.115Z,0.73
2023-05-01T04:58:42.180Z,0.72
2023-05-01T04:59:42.197Z,0.73
2023-05-01T05:00:42.249Z,0.72
2023-05-01T05:01:42.385Z,0.72
2023-05-01T05:02:42.390Z,0.73
2023-05-01T05:03:42.588Z,0.73
2023-05-01T05:04:42.412Z,0.71
2023-05-01T05:05:42.448Z,0.72
2023-05-01T05:06:42.662Z,0.70
2023-05-01T05:07:42.524Z,0.74
2023-05-01T05:08:42.573Z,0.74
2023-05-01T05:09:42.612Z,0.75
2023-05-01T05:10:42.666Z,0.74
2023-05-01T05:11:42.738Z,0.74
2023-05-01T05:12:42.753Z,0.73
2023-05-01T05:13:42.787Z,0.75
2023-05-01T05:14:42.844Z,0.75
2023-05-01T05:15:42.879Z,0.75
2023-05-01T05:16:42.988Z,0.75
2023-05-01T05:17:43.018Z,0.74
2023-05-01T05:18:43.026Z,0.77
2023-05-01T05:19:43.070Z,0.77
2023-05-01T05:20:43.112Z,0.75
2023-05-01T05:21:43.176Z,0.76
2023-05-01T05:22:43.184Z,0.75
2023-05-01T05:23:43.236Z,0.75
2023-05-01T05:24:43.278Z,0.73
2023-05-01T05:25:43.318Z,0.74
2023-05-01T05:26:43.377Z,0.75
2023-05-01T05:27:43.413Z,0.75
2023-05-01T05:28:43.441Z,0.75
2023-05-01T05:29:43.498Z,0.73
2023-05-01T05:30:43.547Z,0.75
2023-05-01T05:31:43.644Z,0.77
2023-05-01T05:32:43.643Z,0.76
2023-05-01T05:33:43.664Z,0.75
2023-05-01T05:34:43.721Z,0.76
2023-05-01T05:35:43.742Z,0.75
2023-05-01T05:36:43.805Z,0.75
2023-05-01T05:37:45.334Z,0.74
2023-05-01T05:38:43.872Z,0.76
2023-05-01T05:39:43.913Z,0.75
2023-05-01T05:40:43.973Z,0.74
2023-05-01T05:41:44.032Z,0.75
2023-05-01T05:42:44.047Z,0.75
2023-05-01T05:43:44.101Z,0.75
2023-05-01T05:44:44.149Z,0.74
2023-05-01T05:45:44.186Z,0.73
2023-05-01T05:46:44.257Z,0.77
2023-05-01T05:47:44.296Z,0.77
2023-05-01T05:48:44.303Z,0.76
2023-05-01T05:49:44.348Z,0.74
2023-05-01T05:50:44.401Z,0.72
2023-05-01T05:51:44.467Z,0.74
2023-05-01T05:52:44.494Z,0.74
2023-05-01T05:53:44.518Z,0.75
2023-05-01T05:54:44.575Z,0.74
2023-05-01T05:55:44.620Z,0.73
2023-05-01T05:56:44.666Z,0.73
2023-05-01T05:57:44.716Z,0.72
2023-05-01T05:58:44.764Z,0.73
2023-05-01T05:59:44.778Z,0.72
2023-05-01T06:00:44.825Z,0.72
2023-05-01T06:01:44.910Z,0.74
2023-05-01T06:02:45.054Z,0.73
2023-05-01T06:03:44.987Z,0.73
2023-05-01T06:04:45.004Z,0.72
2023-05-01T06:05:45.141Z,0.70
2023-05-01T06:06:45.126Z,0.73
2023-05-01T06:07:45.127Z,0.72
2023-05-01T06:08:45.188Z,0.70
2023-05-01T06:09:45.213Z,0.70
2023-05-01T06:10:45.272Z,0.70
2023-05-01T06:11:45.342Z,0.70
2023-05-01T06:12:52.032Z,0.72
2023-05-01T06:13:46.359Z,0.72
2023-05-01T06:14:45.352Z,0.72
2023-05-01T06:15:45.402Z,0.71
2023-05-01T06:16:45.338Z,0.71
2023-05-01T06:17:45.357Z,0.70
2023-05-01T06:18:46.053Z,0.69
2023-05-01T06:19:45.304Z,0.71
2023-05-01T06:20:45.308Z,0.72
2023-05-01T06:21:45.326Z,0.70
2023-05-01T06:22:45.303Z,0.69
2023-05-01T06:23:45.283Z,0.71
2023-05-01T06:24:45.321Z,0.70
2023-05-01T06:25:45.324Z,0.69
2023-05-01T06:26:45.375Z,0.68
2023-05-01T06:27:45.436Z,0.69
2023-05-01T06:28:45.478Z,0.68
2023-05-01T06:29:45.525Z,0.69
2023-05-01T06:30:45.564Z,0.68
2023-05-01T06:31:45.642Z,0.70
2023-05-01T06:32:45.664Z,0.68
2023-05-01T06:33:45.697Z,0.67
2023-05-01T06:34:45.746Z,0.66
2023-05-01T06:35:45.766Z,0.68
2023-05-01T06:36:45.809Z,0.66
2023-05-01T06:37:45.866Z,0.65
2023-05-01T06:38:45.905Z,0.68
2023-05-01T06:39:45.950Z,0.68
2023-05-01T06:40:45.981Z,0.65
2023-05-01T06:41:46.033Z,0.66
2023-05-01T06:42:46.061Z,0.64
2023-05-01T06:43:46.134Z,0.65
2023-05-01T06:44:46.137Z,0.64
2023-05-01T06:45:46.225Z,0.64
2023-05-01T06:46:46.282Z,0.64
2023-05-01T06:47:46.308Z,0.64
2023-05-01T06:48:46.310Z,0.63
2023-05-01T06:49:46.352Z,0.64
2023-05-01T06:50:46.390Z,0.64
2023-05-01T06:51:46.434Z,0.63
2023-05-01T06:52:46.465Z,0.63
2023-05-01T06:53:46.501Z,0.62
2023-05-01T06:54:46.544Z,0.62
2023-05-01T06:55:46.576Z,0.62
2023-05-01T06:56:46.629Z,0.63
2023-05-01T06:57:46.635Z,0.63
2023-05-01T06:58:46.680Z,0.64
2023-05-01T06:59:46.729Z,0.63
2023-05-01T07:00:46.789Z,0.62
2023-05-01T07:01:46.842Z,0.62
2023-05-01T07:02:46.963Z,0.63
2023-05-01T07:03:46.874Z,0.64
2023-05-01T07:04:46.890Z,0.63
2023-05-01T07:05:46.944Z,0.63
2023-05-01T07:06:47.024Z,0.64
2023-05-01T07:07:58.019Z,0.64
2023-05-01T07:08:48.020Z,0.64
2023-05-01T07:09:47.009Z,0.64
2023-05-01T07:10:46.989Z,0.64
2023-05-01T07:11:46.993Z,0.64
2023-05-01T07:12:46.994Z,0.63
2023-05-01T07:13:46.975Z,0.63
2023-05-01T07:14:46.965Z,0.61
2023-05-01T07:15:46.946Z,0.63
2023-05-01T07:16:46.992Z,0.62
2023-05-01T07:17:46.990Z,0.62
2023-05-01T07:18:46.939Z,0.63
2023-05-01T07:19:46.916Z,0.62
2023-05-01T07:20:46.921Z,0.63
2023-05-01T07:21:46.935Z,0.63
2023-05-01T07:22:46.937Z,0.62
2023-05-01T07:23:46.971Z,0.63
2023-05-01T07:24:47.003Z,0.62
2023-05-01T07:25:47.032Z,0.63
2023-05-01T07:26:47.076Z,0.61
2023-05-01T07:27:47.126Z,0.60
2023-05-01T07:28:47.188Z,0.62
2023-05-01T07:29:47.201Z,0.62
2023-05-01T07:30:47.216Z,0.61
2023-05-01T07:31:47.305Z,0.61
2023-05-01T07:32:47.325Z,0.60
2023-05-01T07:33:47.354Z,0.58
2023-05-01T07:34:47.389Z,0.60
2023-05-01T07:35:47.438Z,0.61
2023-05-01T07:36:47.468Z,0.59
2023-05-01T07:37:47.493Z,0.60
2023-05-01T07:38:47.533Z,0.58
2023-05-01T07:39:47.587Z,0.59
2023-05-01T07:40:47.619Z,0.59
2023-05-01T07:41:47.652Z,0.59
2023-05-01T07:42:47.689Z,0.59
2023-05-01T07:43:47.722Z,0.59
2023-05-01T07:44:47.758Z,0.58
2023-05-01T07:45:47.810Z,0.59
2023-05-01T07:46:47.820Z,0.58
2023-05-01T07:47:47.971Z,0.60
2023-05-01T07:48:47.897Z,0.60
2023-05-01T07:49:47.955Z,0.59
2023-05-01T07:50:47.977Z,0.59
2023-05-01T07:51:48.017Z,0.60
2023-05-01T07:52:48.076Z,0.60
2023-05-01T07:53:48.080Z,0.61
2023-05-01T07:54:48.102Z,0.61
2023-05-01T07:55:48.137Z,0.60
2023-05-01T07:56:49.692Z,0.59
2023-05-01T07:57:48.245Z,0.61
2023-05-01T07:58:48.245Z,0.59
2023-05-01T07:59:48.269Z,0.57
2023-05-01T08:00:48.315Z,0.58
2023-05-01T08:01:48.355Z,0.59
2023-05-01T08:02:48.530Z,0.59
2023-05-01T08:03:50.341Z,0.59
2023-05-01T08:04:48.490Z,0.60
2023-05-01T08:05:48.381Z,0.62
2023-05-01T08:06:48.410Z,0.60
2023-05-01T08:07:48.381Z,0.60
2023-05-01T08:08:48.359Z,0.60
2023-05-01T08:09:48.356Z,0.60
2023-05-01T08:10:48.360Z,0.61
2023-05-01T08:11:48.356Z,0.66
2023-05-01T08:12:48.359Z,0.66
2023-05-01T08:13:48.373Z,0.67
2023-05-01T08:14:48.322Z,0.68
2023-05-01T08:15:48.348Z,0.67
2023-05-01T08:16:48.588Z,0.69
2023-05-01T08:17:48.375Z,0.69
2023-05-01T08:18:48.315Z,0.68
2023-05-01T08:19:48.299Z,0.70
2023-05-01T08:20:48.325Z,0.69
2023-05-01T08:21:48.276Z,0.67
2023-05-01T08:22:48.286Z,0.67
2023-05-01T08:23:48.267Z,0.64
2023-05-01T08:24:48.258Z,0.65
2023-05-01T08:25:48.248Z,0.64
2023-05-01T08:26:48.249Z,0.62
2023-05-01T08:27:48.241Z,0.63
2023-05-01T08:28:48.242Z,0.62
2023-05-01T08:29:48.219Z,0.62
2023-05-01T08:30:48.226Z,0.60
2023-05-01T08:31:48.259Z,0.61
2023-05-01T08:32:48.292Z,0.61
2023-05-01T08:33:48.193Z,0.59
2023-05-01T08:34:48.184Z,0.61
2023-05-01T08:35:48.174Z,0.62
2023-05-01T08:36:48.186Z,0.59
2023-05-01T08:37:48.157Z,0.60
2023-05-01T08:38:48.149Z,0.60
2023-05-01T08:39:48.140Z,0.60
2023-05-01T08:40:48.162Z,0.59
2023-05-01T08:41:48.128Z,0.59
2023-05-01T08:42:48.140Z,0.61
2023-05-01T08:43:48.132Z,0.57
2023-05-01T08:44:48.107Z,0.56
2023-05-01T08:45:48.110Z,0.55
2023-05-01T08:46:48.134Z,0.59
2023-05-01T08:47:48.117Z,0.57
2023-05-01T08:48:48.092Z,0.57
2023-05-01T08:49:48.101Z,0.58
2023-05-01T08:50:48.068Z,0.61
2023-05-01T08:51:48.060Z,0.58
2023-05-01T08:52:48.068Z,0.57
2023-05-01T08:53:48.058Z,0.59
2023-05-01T08:54:48.053Z,0.59
2023-05-01T08:55:48.054Z,0.58
2023-05-01T08:56:48.021Z,0.58
2023-05-01T08:57:48.018Z,0.59
2023-05-01T08:58:48.029Z,0.58
2023-05-01T08:59:48.011Z,0.58
2023-05-01T09:00:48.004Z,0.55
2023-05-01T09:01:48.002Z,0.56
2023-05-01T09:02:48.029Z,0.54
2023-05-01T09:03:48.052Z,0.55
2023-05-01T09:04:47.989Z,0.55
2023-05-01T09:05:47.963Z,0.54
2023-05-01T09:06:48.061Z,0.53
2023-05-01T09:07:47.972Z,0.53
2023-05-01T09:08:47.957Z,0.54
2023-05-01T09:09:47.949Z,0.54
2023-05-01T09:10:47.918Z,0.52
2023-05-01T09:11:47.916Z,0.53
2023-05-01T09:12:47.906Z,0.53
2023-05-01T09:13:47.907Z,0.53
2023-05-01T09:14:47.924Z,0.50
2023-05-01T09:15:47.906Z,0.52
2023-05-01T09:16:47.996Z,0.52
2023-05-01T09:17:47.946Z,0.51
2023-05-01T09:18:47.892Z,0.50
2023-05-01T09:19:47.881Z,0.52
2023-05-01T09:20:47.876Z,0.53
2023-05-01T09:21:47.853Z,0.52
2023-05-01T09:22:47.864Z,0.52
2023-05-01T09:23:47.852Z,0.51
2023-05-01T09:24:47.830Z,0.50
2023-05-01T09:25:48.610Z,0.51
2023-05-01T09:26:47.812Z,0.50
2023-05-01T09:27:47.824Z,0.51
2023-05-01T09:28:47.808Z,0.54
2023-05-01T09:29:47.850Z,0.54
2023-05-01T09:30:47.805Z,0.52
2023-05-01T09:31:47.812Z,0.53
2023-05-01T09:32:47.803Z,0.54
2023-05-01T09:33:47.780Z,0.54
2023-05-01T09:34:47.788Z,0.57
2023-05-01T09:35:47.816Z,0.57
2023-05-01T09:36:47.838Z,0.56
2023-05-01T09:37:48.101Z,0.58
2023-05-01T09:38:47.894Z,0.56
2023-05-01T09:39:47.958Z,0.58
2023-05-01T09:40:47.968Z,0.60
2023-05-01T09:41:48.009Z,0.61
2023-05-01T09:42:48.072Z,0.60
2023-05-01T09:43:48.123Z,0.58
2023-05-01T09:44:48.155Z,0.58
2023-05-01T09:45:48.219Z,0.56
2023-05-01T09:46:48.258Z,0.55
2023-05-01T09:47:48.364Z,0.56
2023-05-01T09:48:48.342Z,0.53
2023-05-01T09:49:48.433Z,0.54
2023-05-01T09:50:48.440Z,0.55
2023-05-01T09:51:48.510Z,0.56
2023-05-01T09:52:48.537Z,0.55
2023-05-01T09:53:48.591Z,0.54
2023-05-01T09:54:48.651Z,0.53
2023-05-01T09:55:48.705Z,0.54
2023-05-01T09:56:48.778Z,0.53
2023-05-01T09:57:48.787Z,0.53
2023-05-01T09:58:48.856Z,0.51
2023-05-01T09:59:48.924Z,0.50
2023-05-01T10:00:49.069Z,0.52
2023-05-01T10:01:49.161Z,0.52
2023-05-01T10:02:49.221Z,0.51
2023-05-01T10:03:49.346Z,0.52
2023-05-01T10:04:49.216Z,0.54
2023-05-01T10:05:49.273Z,0.52
2023-05-01T10:06:49.381Z,0.53
2023-05-01T10:07:49.370Z,0.51
2023-05-01T10:08:49.450Z,0.50
2023-05-01T10:09:49.500Z,0.52
2023-05-01T10:10:49.538Z,0.53
2023-05-01T10:11:49.734Z,0.51
2023-05-01T10:12:49.664Z,0.54
2023-05-01T10:13:49.713Z,0.54
2023-05-01T10:14:49.787Z,0.53
2023-05-01T10:15:49.829Z,0.54
2023-05-01T10:16:49.975Z,0.51
2023-05-01T10:17:50.016Z,0.53
2023-05-01T10:18:50.012Z,0.55
2023-05-01T10:19:50.054Z,0.52
2023-05-01T10:20:50.146Z,0.50
2023-05-01T10:21:50.186Z,0.51
2023-05-01T10:22:50.271Z,0.50
2023-05-01T10:23:50.301Z,0.50
2023-05-01T10:24:50.348Z,0.52
2023-05-01T10:25:50.418Z,0.53
2023-05-01T10:26:50.481Z,0.52
2023-05-01T10:27:50.554Z,0.52
2023-05-01T10:28:50.577Z,0.50
2023-05-01T10:29:50.626Z,0.52
2023-05-01T10:30:50.756Z,0.51
2023-05-01T10:31:50.806Z,0.51
2023-05-01T10:32:50.880Z,0.51
2023-05-01T10:33:50.875Z,0.51
2023-05-01T10:34:50.923Z,0.51
2023-05-01T10:35:50.970Z,0.51
2023-05-01T10:36:51.040Z,0.50
2023-05-01T10:37:51.102Z,0.51
2023-05-01T10:38:51.146Z,0.51
2023-05-01T10:39:51.184Z,0.50
2023-05-01T10:40:51.259Z,0.51
2023-05-01T10:41:51.295Z,0.51
2023-05-01T10:42:51.366Z,0.51
2023-05-01T10:43:51.403Z,0.51
2023-05-01T10:44:51.436Z,0.52
2023-05-01T10:45:51.509Z,0.51
2023-05-01T10:46:51.720Z,0.50
2023-05-01T10:47:51.744Z,0.52
2023-05-01T10:48:51.639Z,0.52
2023-05-01T10:49:51.654Z,0.51
2023-05-01T10:50:51.712Z,0.50
2023-05-01T10:51:51.827Z,0.51
2023-05-01T10:52:51.823Z,0.51
2023-05-01T10:53:51.850Z,0.52
2023-05-01T10:54:51.883Z,0.52
2023-05-01T10:55:51.939Z,0.53
2023-05-01T10:56:51.984Z,0.51
2023-05-01T10:57:52.023Z,0.53
2023-05-01T10:58:52.088Z,0.53
2023-05-01T10:59:52.111Z,0.53
2023-05-01T11:00:52.164Z,0.54
2023-05-01T11:01:52.354Z,0.53
2023-05-01T11:02:52.286Z,0.52
2023-05-01T11:03:52.329Z,0.51
2023-05-01T11:04:52.415Z,0.51
2023-05-01T11:05:52.460Z,0.51
2023-05-01T11:06:52.485Z,0.51
2023-05-01T11:07:52.527Z,0.53
2023-05-01T11:08:52.574Z,0.50
2023-05-01T11:09:52.644Z,0.50
2023-05-01T11:10:52.671Z,0.52
2023-05-01T11:11:52.722Z,0.52
2023-05-01T11:12:52.802Z,0.52
2023-05-01T11:13:52.836Z,0.53
2023-05-01T11:14:52.877Z,0.52
2023-05-01T11:15:52.919Z,0.50
2023-05-01T11:16:53.066Z,0.50
2023-05-01T11:17:53.061Z,0.51
2023-05-01T11:18:53.061Z,0.50
2023-05-01T11:19:53.121Z,0.51
2023-05-01T11:20:53.176Z,0.52
2023-05-01T11:21:53.207Z,0.51
2023-05-01T11:22:53.269Z,0.52
2023-05-01T11:23:53.306Z,0.50
2023-05-01T11:24:53.349Z,0.53
2023-05-01T11:25:53.411Z,0.51
2023-05-01T11:26:53.438Z,0.51
2023-05-01T11:27:53.512Z,0.51
2023-05-01T11:28:53.542Z,0.50
2023-05-01T11:29:53.590Z,0.51
2023-05-01T11:30:53.626Z,0.51
2023-05-01T11:31:53.749Z,0.50
2023-05-01T11:32:53.749Z,0.52
2023-05-01T11:33:53.761Z,0.52
2023-05-01T11:34:53.863Z,0.51
2023-05-01T11:35:53.855Z,0.53
2023-05-01T11:36:53.925Z,0.51
2023-05-01T11:37:53.985Z,0.50
2023-05-01T11:38:54.002Z,0.51
2023-05-01T11:39:54.048Z,0.53
2023-05-01T11:40:54.100Z,0.53
2023-05-01T11:41:54.172Z,0.53
2023-05-01T11:42:54.226Z,0.53
2023-05-01T11:43:54.246Z,0.53
2023-05-01T11:44:54.481Z,0.51
2023-05-01T11:45:54.474Z,0.53
2023-05-01T11:46:54.375Z,0.54
2023-05-01T11:47:54.545Z,0.53
2023-05-01T11:48:54.496Z,0.52
2023-05-01T11:49:54.535Z,0.52
2023-05-01T11:50:54.588Z,0.51
2023-05-01T11:51:54.627Z,0.51
2023-05-01T11:52:54.705Z,0.52
2023-05-01T11:53:54.714Z,0.52
2023-05-01T11:54:54.774Z,0.53
2023-05-01T11:55:54.824Z,0.51
2023-05-01T11:56:54.875Z,0.53
2023-05-01T11:57:54.942Z,0.54
2023-05-01T11:58:54.973Z,0.51
2023-05-01T11:59:55.008Z,0.55
2023-05-01T12:00:55.066Z,0.56
2023-05-01T12:01:55.160Z,0.58
2023-05-01T12:02:55.228Z,0.58
2023-05-01T12:03:55.315Z,0.57
2023-05-01T12:04:55.532Z,0.56
2023-05-01T12:05:55.316Z,0.56
2023-05-01T12:06:55.428Z,0.56
2023-05-01T12:07:55.457Z,0.57
2023-05-01T12:08:55.488Z,0.54
2023-05-01T12:09:55.542Z,0.54
2023-05-01T12:10:55.582Z,0.58
2023-05-01T12:11:55.639Z,0.60
2023-05-01T12:12:55.737Z,0.57
2023-05-01T12:13:55.741Z,0.57
2023-05-01T12:14:56.040Z,0.51
2023-05-01T12:15:55.902Z,0.57
2023-05-01T12:16:55.973Z,0.57
2023-05-01T12:17:56.014Z,0.60
2023-05-01T12:18:56.021Z,0.61
2023-05-01T12:19:56.080Z,0.62
2023-05-01T12:20:56.166Z,0.61
2023-05-01T12:21:56.181Z,0.58
2023-05-01T12:22:56.259Z,0.57
2023-05-01T12:23:56.278Z,0.59
2023-05-01T12:24:56.571Z,0.57
2023-05-01T12:25:56.367Z,0.59
2023-05-01T12:26:56.425Z,0.61
2023-05-01T12:27:56.499Z,0.60
2023-05-01T12:28:56.521Z,0.57
2023-05-01T12:29:56.555Z,0.56
2023-05-01T12:30:56.608Z,0.56
2023-05-01T12:31:56.705Z,0.55
2023-05-01T12:32:56.757Z,0.56
2023-05-01T12:33:56.758Z,0.57
2023-05-01T12:34:56.950Z,0.57
2023-05-01T12:35:56.859Z,0.59
2023-05-01T12:36:56.913Z,0.62
2023-05-01T12:37:56.984Z,0.59
2023-05-01T12:38:57.014Z,0.59
2023-05-01T12:39:57.037Z,0.58
2023-05-01T12:40:57.083Z,0.59
2023-05-01T12:41:57.144Z,0.60
2023-05-01T12:42:57.223Z,0.60
2023-05-01T12:43:57.239Z,0.63
2023-05-01T12:44:57.471Z,0.61
2023-05-01T12:45:57.364Z,0.60
2023-05-01T12:46:57.455Z,0.61
2023-05-01T12:47:57.508Z,0.60
2023-05-01T12:48:57.428Z,0.59
2023-05-01T12:49:57.634Z,0.61
2023-05-01T12:50:57.538Z,0.59
2023-05-01T12:51:57.570Z,0.59
2023-05-01T12:52:57.633Z,0.60
2023-05-01T12:53:57.671Z,0.63
2023-05-01T12:54:57.912Z,0.61
2023-05-01T12:55:57.766Z,0.62
2023-05-01T12:56:57.804Z,0.63
2023-05-01T12:57:57.852Z,0.62
2023-05-01T12:58:57.903Z,0.60
2023-05-01T12:59:58.094Z,0.59
2023-05-01T13:00:57.979Z,0.56
2023-05-01T13:01:58.079Z,0.58
2023-05-01T13:02:58.134Z,0.58
2023-05-01T13:03:58.338Z,0.58
2023-05-01T13:04:58.167Z,0.59
2023-05-01T13:05:58.304Z,0.58
2023-05-01T13:06:58.309Z,0.54
2023-05-01T13:07:58.357Z,0.56
2023-05-01T13:08:58.369Z,0.55
2023-05-01T13:09:58.662Z,0.55
2023-05-01T13:10:58.479Z,0.55
2023-05-01T13:11:58.540Z,0.55
2023-05-01T13:12:58.596Z,0.54
2023-05-01T13:13:58.634Z,0.53
2023-05-01T13:14:58.693Z,0.52
2023-05-01T13:15:58.771Z,0.52
2023-05-01T13:16:58.794Z,0.51
2023-05-01T13:17:58.888Z,0.50
2023-05-01T13:18:58.887Z,0.52